Time;durP1;ratioP1;P1;durP2;ratioP2;P2;SDS_P1;SDS_P2;PMS_P1;PMS_P2;Temp;Humidity;BMP_temperature;BMP_pressure;BME280_temperature;BME280_humidity;BME280_pressure;Samples;Min_cycle;Max_cycle;Signal;HPM_P1;HPM_P2
2023/04/29 00:02:13;;;;;;;4.57;3.95;;;15.30;99.90;;;;;;5032465;28;20229;-78
2023/04/29 00:04:39;;;;;;;4.65;4.00;;;15.30;99.90;;;;;;5035505;28;20237;-76
2023/04/29 00:07:05;;;;;;;3.90;3.50;;;15.30;99.90;;;;;;5035711;28;20176;-79
2023/04/29 00:09:32;;;;;;;4.00;3.60;;;15.20;99.90;;;;;;5035613;28;20166;-80
2023/04/29 00:11:57;;;;;;;4.88;3.97;;;15.20;99.90;;;;;;5035280;28;20188;-78
2023/04/29 00:14:25;;;;;;;4.35;3.72;;;15.20;99.90;;;;;;5034943;28;20182;-79
2023/04/29 00:16:51;;;;;;;4.57;3.80;;;15.10;99.90;;;;;;5038309;28;20188;-79
2023/04/29 00:19:19;;;;;;;3.83;3.53;;;15.10;99.90;;;;;;5034724;28;20170;-78
2023/04/29 00:21:46;;;;;;;5.22;4.43;;;15.00;99.90;;;;;;5036128;28;20182;-77
2023/04/29 00:24:17;;;;;;;4.93;4.00;;;15.00;99.90;;;;;;5035131;28;20193;-80
2023/04/29 00:26:45;;;;;;;5.07;3.78;;;15.00;99.90;;;;;;5034457;28;20320;-80
2023/04/29 00:29:11;;;;;;;5.38;3.90;;;15.00;99.90;;;;;;5045898;28;20198;-76
2023/04/29 00:31:39;;;;;;;7.32;5.60;;;15.00;99.90;;;;;;5025963;28;20170;-78
2023/04/29 00:34:04;;;;;;;7.57;6.00;;;14.90;99.90;;;;;;5031435;28;20194;-77
2023/04/29 00:36:31;;;;;;;6.68;5.32;;;14.90;99.90;;;;;;5032214;28;20300;-77
2023/04/29 00:38:57;;;;;;;7.63;5.85;;;14.90;99.90;;;;;;5034607;28;20385;-79
2023/04/29 00:41:25;;;;;;;6.97;5.80;;;14.80;99.90;;;;;;5032998;28;20277;-64
2023/04/29 00:43:54;;;;;;;7.28;5.95;;;14.80;99.90;;;;;;5029890;28;20198;-64
2023/04/29 00:46:19;;;;;;;8.40;6.70;;;14.70;99.90;;;;;;5036701;28;20178;-64
2023/04/29 00:48:45;;;;;;;6.65;5.50;;;14.70;99.90;;;;;;5034156;28;20178;-64
2023/04/29 00:51:12;;;;;;;10.10;6.50;;;14.70;99.90;;;;;;5028528;28;20202;-65
2023/04/29 00:53:40;;;;;;;9.52;6.85;;;14.70;99.90;;;;;;5034191;28;20179;-65
2023/04/29 00:56:12;;;;;;;9.75;7.53;;;14.60;99.90;;;;;;5033811;28;20209;-64
2023/04/29 00:58:48;;;;;;;8.77;6.70;;;14.60;99.90;;;;;;5031826;28;20270;-64
2023/04/29 01:01:21;;;;;;;9.23;7.00;;;14.60;99.90;;;;;;5028022;28;20196;-64
2023/04/29 01:03:50;;;;;;;8.25;6.20;;;14.50;99.90;;;;;;5034934;28;20188;-65
2023/04/29 01:06:36;;;;;;;8.70;6.57;;;14.50;99.90;;;;;;5035314;28;20246;-64
2023/04/29 01:09:34;;;;;;;8.73;7.10;;;14.50;99.90;;;;;;5033749;28;20257;-64
2023/04/29 01:12:24;;;;;;;9.65;6.40;;;14.40;99.90;;;;;;5013884;28;20224;-64
2023/04/29 01:15:05;;;;;;;7.05;5.45;;;14.40;99.90;;;;;;5024424;28;20207;-63
2023/04/29 01:17:40;;;;;;;7.63;5.50;;;14.40;99.90;;;;;;5033780;28;20174;-64
2023/04/29 01:20:11;;;;;;;8.23;6.47;;;14.30;99.90;;;;;;5032285;28;20202;-64
2023/04/29 01:22:38;;;;;;;8.95;6.43;;;14.30;99.90;;;;;;5048688;28;20224;-63
2023/04/29 01:25:05;;;;;;;7.63;6.18;;;14.30;99.90;;;;;;5029657;28;20262;-64
2023/04/29 01:28:00;;;;;;;7.95;5.90;;;14.30;99.90;;;;;;5027350;28;20264;-63
2023/04/29 01:30:43;;;;;;;7.35;5.82;;;14.20;99.90;;;;;;5047481;28;20178;-64
2023/04/29 01:33:42;;;;;;;6.97;5.35;;;14.20;99.90;;;;;;5037814;28;20173;-63
2023/04/29 01:36:23;;;;;;;7.35;5.38;;;14.20;99.90;;;;;;5030533;28;20189;-64
2023/04/29 01:38:55;;;;;;;6.32;4.82;;;14.20;99.90;;;;;;5037572;28;20178;-64
2023/04/29 01:41:39;;;;;;;7.40;5.30;;;14.20;99.90;;;;;;5034662;28;20201;-64
2023/04/29 01:44:07;;;;;;;7.88;6.15;;;14.20;99.90;;;;;;5036212;28;20180;-64
2023/04/29 01:46:34;;;;;;;8.82;6.07;;;14.20;99.90;;;;;;5031100;28;20270;-64
2023/04/29 01:49:04;;;;;;;7.88;5.63;;;14.10;99.90;;;;;;5023671;28;20199;-64
2023/04/29 01:51:30;;;;;;;8.80;6.00;;;14.10;99.90;;;;;;5030599;28;20195;-63
2023/04/29 01:53:56;;;;;;;6.63;5.03;;;14.10;99.90;;;;;;5034436;28;20174;-64
2023/04/29 01:56:21;;;;;;;6.72;5.07;;;14.10;99.90;;;;;;5034896;28;20242;-63
2023/04/29 01:58:47;;;;;;;6.68;5.07;;;14.10;99.90;;;;;;5027874;28;20198;-65
2023/04/29 02:01:13;;;;;;;6.07;4.90;;;14.10;99.90;;;;;;5030174;28;20178;-64
2023/04/29 02:03:38;;;;;;;7.45;4.72;;;14.10;99.90;;;;;;5032458;28;20209;-65
2023/04/29 02:06:05;;;;;;;6.05;4.90;;;14.10;99.90;;;;;;5027324;28;20197;-64
2023/04/29 02:08:34;;;;;;;6.45;4.30;;;14.10;99.90;;;;;;5033484;28;20257;-65
2023/04/29 02:10:59;;;;;;;6.10;4.40;;;14.10;99.90;;;;;;5033328;28;20284;-65
2023/04/29 02:13:25;;;;;;;5.40;4.22;;;14.10;99.90;;;;;;5034543;28;20198;-65
2023/04/29 02:15:56;;;;;;;5.25;4.20;;;14.10;99.90;;;;;;5032620;28;20193;-65
2023/04/29 02:18:24;;;;;;;5.15;4.30;;;14.10;99.90;;;;;;5030318;28;20251;-65
2023/04/29 02:21:01;;;;;;;5.32;3.83;;;14.10;99.90;;;;;;5030404;28;20193;-65
2023/04/29 02:23:30;;;;;;;5.30;4.15;;;14.10;99.90;;;;;;5033146;28;20181;-64
2023/04/29 02:25:55;;;;;;;7.95;5.90;;;14.20;99.90;;;;;;5020868;28;20210;-65
2023/04/29 02:28:22;;;;;;;10.18;7.28;;;14.10;99.90;;;;;;5031265;28;20181;-64
2023/04/29 02:30:48;;;;;;;13.40;9.07;;;14.10;99.90;;;;;;5031145;28;20198;-64
2023/04/29 02:33:17;;;;;;;14.50;10.50;;;14.10;99.90;;;;;;5032680;28;20186;-65
2023/04/29 02:35:43;;;;;;;14.15;9.88;;;14.10;99.90;;;;;;5031154;28;20194;-64
2023/04/29 02:38:09;;;;;;;16.40;10.68;;;14.00;99.90;;;;;;5026710;28;20190;-64
2023/04/29 02:40:40;;;;;;;15.80;11.23;;;13.90;99.90;;;;;;5024649;28;20224;-64
2023/04/29 02:43:06;;;;;;;16.45;10.57;;;13.90;99.90;;;;;;5038941;28;20216;-64
2023/04/29 02:45:32;;;;;;;16.20;10.52;;;13.90;99.90;;;;;;5033554;28;20237;-64
2023/04/29 02:48:00;;;;;;;16.42;11.13;;;13.80;99.90;;;;;;5033822;28;20257;-64
2023/04/29 02:50:28;;;;;;;13.38;9.68;;;13.80;99.90;;;;;;5030025;28;20167;-64
2023/04/29 02:52:53;;;;;;;13.55;9.35;;;13.70;99.90;;;;;;5029325;28;20202;-64
2023/04/29 02:55:21;;;;;;;12.77;9.43;;;13.70;99.90;;;;;;5033017;28;20189;-64
2023/04/29 02:57:49;;;;;;;13.63;9.07;;;13.70;99.90;;;;;;5029948;28;20194;-64
2023/04/29 03:00:15;;;;;;;13.57;9.18;;;13.70;99.90;;;;;;5030931;28;20199;-64
2023/04/29 03:02:45;;;;;;;11.32;9.02;;;13.70;99.90;;;;;;5032625;28;20189;-64
2023/04/29 03:05:11;;;;;;;10.93;8.15;;;13.70;99.90;;;;;;5030847;28;20198;-64
2023/04/29 03:07:37;;;;;;;13.52;9.48;;;13.70;99.90;;;;;;5030734;28;20242;-65
2023/04/29 03:10:05;;;;;;;13.50;9.18;;;13.70;99.90;;;;;;5032756;28;20189;-65
2023/04/29 03:12:31;;;;;;;13.60;9.63;;;13.70;99.90;;;;;;5033014;28;20170;-64
2023/04/29 03:14:58;;;;;;;15.45;10.70;;;13.60;99.90;;;;;;5027544;28;20220;-64
2023/04/29 03:17:24;;;;;;;15.65;10.82;;;13.60;99.90;;;;;;5029949;28;20237;-65
2023/04/29 03:19:53;;;;;;;14.25;9.63;;;13.60;99.90;;;;;;5036813;28;20209;-64
2023/04/29 03:22:18;;;;;;;15.75;11.15;;;13.50;99.90;;;;;;5037512;28;20255;-63
2023/04/29 03:24:44;;;;;;;15.60;10.73;;;13.50;99.90;;;;;;5035007;28;20289;-64
2023/04/29 03:27:10;;;;;;;17.30;11.30;;;13.50;99.90;;;;;;5034640;28;20171;-64
2023/04/29 03:29:36;;;;;;;19.00;11.75;;;13.50;99.90;;;;;;5036775;28;20212;-64
2023/04/29 03:32:02;;;;;;;15.68;10.90;;;13.50;99.90;;;;;;5040781;28;20170;-64
2023/04/29 03:34:28;;;;;;;15.18;10.18;;;13.40;99.90;;;;;;5035511;28;20185;-64
2023/04/29 03:36:54;;;;;;;17.63;10.48;;;13.40;99.90;;;;;;5025841;28;20206;-64
2023/04/29 03:39:19;;;;;;;21.08;12.32;;;13.40;99.90;;;;;;5036920;28;20178;-64
2023/04/29 03:41:46;;;;;;;16.60;11.50;;;13.40;99.90;;;;;;5041051;28;20173;-65
2023/04/29 03:44:14;;;;;;;18.08;11.95;;;13.30;99.90;;;;;;5037172;28;20210;-64
2023/04/29 03:46:42;;;;;;;15.13;10.98;;;13.40;99.90;;;;;;5036363;28;20182;-65
2023/04/29 03:49:10;;;;;;;15.63;10.75;;;13.30;99.90;;;;;;5036248;28;20177;-64
2023/04/29 03:51:38;;;;;;;17.35;10.57;;;13.30;99.90;;;;;;5034379;28;20228;-64
2023/04/29 03:54:04;;;;;;;16.23;11.07;;;13.20;99.90;;;;;;5032301;28;20183;-64
2023/04/29 03:56:32;;;;;;;18.63;11.95;;;13.20;99.90;;;;;;5036261;28;20189;-64
2023/04/29 03:59:00;;;;;;;19.00;12.52;;;13.20;99.90;;;;;;5038443;28;20170;-64
2023/04/29 04:01:25;;;;;;;19.95;13.93;;;13.10;99.90;;;;;;5026009;28;20175;-65
2023/04/29 04:03:51;;;;;;;20.73;13.55;;;13.10;99.90;;;;;;5033630;28;20449;-64
2023/04/29 04:06:22;;;;;;;18.00;12.88;;;13.00;99.90;;;;;;5029927;28;20360;-65
2023/04/29 04:08:47;;;;;;;22.98;15.48;;;12.90;99.90;;;;;;5025636;28;20200;-65
2023/04/29 04:11:14;;;;;;;25.08;15.45;;;12.90;99.90;;;;;;5028395;28;20300;-64
2023/04/29 04:13:42;;;;;;;22.67;15.05;;;12.70;99.90;;;;;;5036777;28;20177;-64
2023/04/29 04:16:09;;;;;;;23.30;14.40;;;12.70;99.90;;;;;;5036278;28;20190;-64
2023/04/29 04:18:35;;;;;;;22.95;14.98;;;12.60;99.90;;;;;;5035008;28;20178;-65
2023/04/29 04:21:08;;;;;;;21.60;14.18;;;12.50;99.90;;;;;;5026797;28;20189;-65
2023/04/29 04:23:40;;;;;;;25.60;16.15;;;12.40;99.90;;;;;;5025758;28;20225;-65
2023/04/29 04:26:06;;;;;;;25.08;15.48;;;12.40;99.90;;;;;;5033199;28;20293;-65
2023/04/29 04:28:34;;;;;;;27.00;18.48;;;12.30;99.90;;;;;;5035619;28;20265;-65
2023/04/29 04:31:00;;;;;;;27.88;17.58;;;12.20;99.90;;;;;;5033179;28;20170;-65
2023/04/29 04:33:26;;;;;;;31.45;18.92;;;12.20;99.90;;;;;;5034194;28;20257;-65
2023/04/29 04:35:52;;;;;;;30.65;18.02;;;12.10;99.90;;;;;;5030374;28;20186;-65
2023/04/29 04:38:18;;;;;;;31.98;19.40;;;12.00;99.90;;;;;;5034089;28;20209;-66
2023/04/29 04:40:43;;;;;;;36.88;22.17;;;12.00;99.90;;;;;;5033263;28;20239;-65
2023/04/29 04:43:11;;;;;;;31.85;18.77;;;11.90;99.90;;;;;;5015841;28;20182;-66
2023/04/29 04:45:37;;;;;;;28.58;17.08;;;11.90;99.90;;;;;;5021421;28;20237;-66
2023/04/29 04:48:05;;;;;;;41.25;24.48;;;11.80;99.90;;;;;;5033503;28;20214;-65
2023/04/29 04:50:31;;;;;;;36.15;21.27;;;11.80;99.90;;;;;;5035099;28;20182;-65
2023/04/29 04:52:59;;;;;;;33.80;20.13;;;11.80;99.90;;;;;;5031461;28;20182;-66
2023/04/29 04:55:25;;;;;;;39.92;23.02;;;11.70;99.90;;;;;;5031515;28;20190;-66
2023/04/29 04:57:53;;;;;;;40.95;22.50;;;11.70;99.90;;;;;;5031119;28;20207;-66
2023/04/29 05:00:19;;;;;;;39.22;21.80;;;11.70;99.90;;;;;;5036429;28;20178;-66
2023/04/29 05:02:46;;;;;;;40.88;21.95;;;11.60;99.90;;;;;;5031403;28;20262;-66
2023/04/29 05:05:13;;;;;;;38.63;22.05;;;11.60;99.90;;;;;;5033586;28;20204;-67
2023/04/29 05:07:38;;;;;;;32.90;19.20;;;11.60;99.90;;;;;;5034345;28;20178;-67
2023/04/29 05:10:10;;;;;;;37.00;21.20;;;11.60;99.90;;;;;;5036238;28;20353;-67
2023/04/29 05:12:35;;;;;;;31.45;18.88;;;11.60;99.90;;;;;;5051185;28;20189;-67
2023/04/29 05:15:01;;;;;;;33.03;17.88;;;11.50;99.90;;;;;;5033762;28;20182;-69
2023/04/29 05:17:27;;;;;;;34.53;19.27;;;11.60;99.90;;;;;;5032721;28;20201;-67
2023/04/29 05:19:53;;;;;;;33.15;17.98;;;11.50;99.90;;;;;;5028417;28;20334;-67
2023/04/29 05:22:18;;;;;;;32.05;17.67;;;11.50;99.90;;;;;;5033471;28;20184;-68
2023/04/29 05:24:47;;;;;;;27.02;16.50;;;11.50;99.90;;;;;;5034410;28;20198;-67
2023/04/29 05:27:14;;;;;;;26.13;14.65;;;11.40;99.90;;;;;;5030301;28;20419;-67
2023/04/29 05:29:40;;;;;;;29.83;15.85;;;11.50;99.90;;;;;;5032392;28;20182;-67
2023/04/29 05:32:06;;;;;;;33.30;18.52;;;11.40;99.90;;;;;;5033638;28;20201;-67
2023/04/29 05:34:32;;;;;;;32.05;17.38;;;11.50;99.90;;;;;;5033931;28;20265;-67
2023/04/29 05:37:00;;;;;;;35.67;18.50;;;11.40;99.90;;;;;;5034041;28;20185;-67
2023/04/29 05:39:26;;;;;;;33.63;17.80;;;11.40;99.90;;;;;;5059594;28;20208;-67
2023/04/29 05:41:54;;;;;;;29.90;16.98;;;11.40;99.90;;;;;;5030504;28;20232;-67
2023/04/29 05:44:19;;;;;;;31.63;17.80;;;11.30;99.90;;;;;;5041696;28;20304;-67
2023/04/29 05:46:47;;;;;;;29.88;16.83;;;11.40;99.90;;;;;;5034256;28;20202;-67
2023/04/29 05:49:13;;;;;;;31.48;16.92;;;11.30;99.90;;;;;;5030794;28;20186;-67
2023/04/29 05:51:38;;;;;;;28.33;15.82;;;11.30;99.90;;;;;;5028578;28;20185;-67
2023/04/29 05:54:04;;;;;;;27.67;14.32;;;11.30;99.90;;;;;;5030851;28;20265;-67
2023/04/29 05:56:30;;;;;;;27.05;15.30;;;11.30;99.90;;;;;;5034091;28;20174;-67
2023/04/29 05:58:58;;;;;;;29.67;16.45;;;11.30;99.90;;;;;;5037852;28;20193;-67
2023/04/29 06:01:23;;;;;;;28.92;16.02;;;11.30;99.90;;;;;;5042220;28;20174;-67
2023/04/29 06:03:51;;;;;;;31.30;16.23;;;11.20;99.90;;;;;;5030883;28;20167;-67
2023/04/29 06:06:17;;;;;;;26.75;15.55;;;11.20;99.90;;;;;;5030943;28;20189;-67
2023/04/29 06:08:45;;;;;;;27.92;14.77;;;11.20;99.90;;;;;;5040661;28;20235;-67
2023/04/29 06:11:13;;;;;;;25.38;15.00;;;11.20;99.90;;;;;;5036770;28;20332;-67
2023/04/29 06:13:39;;;;;;;26.23;14.60;;;11.20;99.90;;;;;;5032910;28;20178;-67
2023/04/29 06:16:05;;;;;;;23.95;13.05;;;11.20;99.90;;;;;;5031227;28;20186;-67
2023/04/29 06:18:30;;;;;;;22.42;12.70;;;11.20;99.90;;;;;;5030568;28;20208;-67
2023/04/29 06:21:01;;;;;;;24.02;14.13;;;11.20;99.90;;;;;;5033635;28;20174;-67
2023/04/29 06:23:26;;;;;;;24.27;14.18;;;11.30;99.90;;;;;;5033015;28;20182;-67
2023/04/29 06:25:54;;;;;;;23.85;13.52;;;11.20;99.90;;;;;;5027666;28;20256;-68
2023/04/29 06:28:20;;;;;;;22.88;13.07;;;11.20;99.90;;;;;;5028821;28;20475;-67
2023/04/29 06:30:46;;;;;;;20.85;13.18;;;11.20;99.90;;;;;;5031159;28;20205;-67
2023/04/29 06:33:14;;;;;;;20.30;12.38;;;11.40;99.90;;;;;;5026704;28;20179;-67
2023/04/29 06:35:40;;;;;;;22.25;12.00;;;11.30;99.90;;;;;;5031234;28;21051;-67
2023/04/29 06:38:07;;;;;;;20.92;13.07;;;11.20;99.90;;;;;;5032764;28;20208;-66
2023/04/29 06:40:33;;;;;;;24.55;14.18;;;11.30;99.90;;;;;;5032581;28;20185;-66
2023/04/29 06:42:59;;;;;;;22.75;13.85;;;11.30;99.90;;;;;;5033045;28;20201;-67
2023/04/29 06:45:27;;;;;;;20.13;12.82;;;11.30;99.90;;;;;;5030526;28;20263;-66
2023/04/29 06:47:54;;;;;;;19.58;12.85;;;11.30;99.90;;;;;;5028715;28;20202;-66
2023/04/29 06:50:22;;;;;;;23.33;14.18;;;11.40;99.90;;;;;;5021354;28;20209;-65
2023/04/29 06:52:50;;;;;;;20.73;13.20;;;11.40;99.90;;;;;;5032013;28;20178;-66
2023/04/29 06:55:16;;;;;;;20.48;12.43;;;11.50;99.90;;;;;;5048282;28;20221;-66
2023/04/29 06:57:46;;;;;;;20.98;12.48;;;11.50;99.90;;;;;;5033661;28;20171;-67
2023/04/29 07:00:12;;;;;;;20.55;13.02;;;11.50;99.90;;;;;;5034748;28;20189;-67
2023/04/29 07:02:38;;;;;;;19.15;12.43;;;11.60;99.90;;;;;;5034570;28;20256;-66
2023/04/29 07:05:05;;;;;;;17.80;11.23;;;11.70;99.90;;;;;;5033214;28;20210;-67
2023/04/29 07:07:33;;;;;;;16.25;11.35;;;11.60;99.90;;;;;;5038920;28;20174;-68
2023/04/29 07:09:58;;;;;;;18.60;11.40;;;11.70;99.90;;;;;;5035760;28;20190;-67
2023/04/29 07:12:26;;;;;;;17.15;11.52;;;11.70;99.90;;;;;;5036652;28;20185;-66
2023/04/29 07:14:54;;;;;;;15.88;10.52;;;11.70;99.90;;;;;;5037119;28;20190;-66
2023/04/29 07:17:19;;;;;;;13.68;9.43;;;11.80;99.90;;;;;;5034058;28;20224;-66
2023/04/29 07:19:48;;;;;;;15.98;10.30;;;11.80;99.90;;;;;;5037551;28;20210;-66
2023/04/29 07:22:13;;;;;;;16.35;11.02;;;11.80;99.90;;;;;;5025662;28;20245;-67
2023/04/29 07:24:41;;;;;;;15.18;10.52;;;11.80;99.90;;;;;;5031836;28;20256;-66
2023/04/29 07:27:09;;;;;;;13.65;9.02;;;11.80;99.90;;;;;;5047832;28;20181;-66
2023/04/29 07:29:34;;;;;;;14.15;9.50;;;11.90;99.90;;;;;;5035291;28;20198;-65
2023/04/29 07:32:00;;;;;;;17.33;10.10;;;12.00;99.90;;;;;;5029803;28;20182;-68
2023/04/29 07:34:26;;;;;;;15.07;10.13;;;11.90;99.90;;;;;;5031355;28;20186;-66
2023/04/29 07:36:51;;;;;;;12.77;9.48;;;11.90;99.90;;;;;;5026115;28;20201;-65
2023/04/29 07:39:19;;;;;;;14.43;10.00;;;11.90;99.90;;;;;;5039517;28;20190;-65
2023/04/29 07:41:47;;;;;;;12.10;8.57;;;12.00;99.90;;;;;;5021469;28;20187;-64
2023/04/29 07:44:13;;;;;;;12.55;9.48;;;12.00;99.90;;;;;;5034418;28;20186;-66
2023/04/29 07:46:38;;;;;;;13.23;9.80;;;11.90;99.90;;;;;;5036540;28;20212;-66
2023/04/29 07:49:06;;;;;;;14.10;10.27;;;12.00;99.90;;;;;;5036810;28;20193;-66
2023/04/29 07:51:32;;;;;;;14.75;10.73;;;12.00;99.90;;;;;;5038652;28;20177;-66
2023/04/29 07:53:58;;;;;;;16.02;10.75;;;11.90;99.90;;;;;;5036501;28;20189;-65
2023/04/29 07:56:23;;;;;;;12.93;9.20;;;12.00;99.90;;;;;;5038612;28;20715;-64
2023/04/29 07:58:51;;;;;;;14.50;10.48;;;12.00;99.90;;;;;;5036797;28;20180;-66
2023/04/29 08:01:17;;;;;;;13.65;10.38;;;12.00;99.90;;;;;;5037600;28;20197;-66
2023/04/29 08:03:43;;;;;;;13.80;10.23;;;11.90;99.90;;;;;;5036365;28;20320;-66
2023/04/29 08:06:10;;;;;;;14.85;10.27;;;12.00;99.90;;;;;;5032924;28;20229;-65
2023/04/29 08:08:36;;;;;;;15.07;9.45;;;12.00;99.90;;;;;;5034745;28;20188;-65
2023/04/29 08:11:05;;;;;;;13.10;9.52;;;11.90;99.90;;;;;;5034630;28;20166;-65
2023/04/29 08:13:30;;;;;;;15.65;10.52;;;11.90;99.90;;;;;;5025819;28;20209;-66
2023/04/29 08:15:56;;;;;;;14.13;10.05;;;11.90;99.90;;;;;;5032484;28;20182;-64
2023/04/29 08:18:22;;;;;;;15.23;10.27;;;12.00;99.90;;;;;;5035778;28;20173;-66
2023/04/29 08:20:52;;;;;;;14.30;9.88;;;12.00;99.90;;;;;;5029706;28;20183;-65
2023/04/29 08:23:18;;;;;;;14.27;9.68;;;12.10;99.90;;;;;;5017337;28;20175;-66
2023/04/29 08:25:43;;;;;;;13.80;9.88;;;12.20;99.90;;;;;;5031293;28;20213;-65
2023/04/29 08:28:09;;;;;;;12.73;9.18;;;12.20;99.90;;;;;;5035617;28;20189;-65
2023/04/29 08:30:39;;;;;;;14.13;10.10;;;12.30;99.90;;;;;;5026084;28;20179;-65
2023/04/29 08:33:05;;;;;;;11.95;8.75;;;12.40;99.90;;;;;;5027869;28;20231;-65
2023/04/29 08:35:36;;;;;;;11.52;8.60;;;12.40;99.90;;;;;;5032386;28;20179;-65
2023/04/29 08:38:04;;;;;;;12.45;8.95;;;12.50;99.90;;;;;;5034235;28;20239;-65
2023/04/29 08:40:30;;;;;;;13.68;9.77;;;12.50;99.90;;;;;;5035760;28;20173;-66
2023/04/29 08:42:57;;;;;;;13.27;9.88;;;12.50;99.90;;;;;;5035124;28;20239;-65
2023/04/29 08:45:28;;;;;;;14.40;10.02;;;12.60;99.90;;;;;;5019934;28;20210;-66
2023/04/29 08:47:56;;;;;;;12.02;9.35;;;12.60;99.90;;;;;;5025407;28;20174;-64
2023/04/29 08:50:22;;;;;;;11.90;9.25;;;12.60;99.90;;;;;;5032573;28;20178;-63
2023/04/29 08:52:50;;;;;;;13.63;9.65;;;12.60;99.90;;;;;;5030540;28;20175;-63
2023/04/29 08:55:17;;;;;;;15.15;10.43;;;12.60;99.90;;;;;;5032076;28;20174;-65
2023/04/29 08:57:45;;;;;;;13.10;9.55;;;12.60;99.90;;;;;;5026163;28;20182;-64
2023/04/29 09:00:13;;;;;;;11.88;9.68;;;12.60;99.90;;;;;;5031502;28;20183;-64
2023/04/29 09:02:44;;;;;;;11.75;8.70;;;12.60;99.90;;;;;;5042532;28;20253;-65
2023/04/29 09:05:12;;;;;;;13.00;9.23;;;12.60;99.90;;;;;;5032364;28;20206;-65
2023/04/29 09:07:42;;;;;;;12.88;9.70;;;12.60;99.90;;;;;;5037108;28;20210;-65
2023/04/29 09:10:09;;;;;;;13.57;9.52;;;12.60;99.90;;;;;;5027586;28;20178;-65
2023/04/29 09:12:35;;;;;;;13.20;9.48;;;12.50;99.90;;;;;;5038772;28;20217;-65
2023/04/29 09:15:02;;;;;;;13.43;9.98;;;12.50;99.90;;;;;;5034249;28;20276;-65
2023/04/29 09:18:02;;;;;;;14.35;10.27;;;12.50;99.90;;;;;;5032940;28;20190;-65
2023/04/29 09:20:29;;;;;;;12.98;9.15;;;12.50;99.90;;;;;;5016779;28;20269;-66
2023/04/29 09:23:05;;;;;;;11.00;8.35;;;12.50;99.90;;;;;;5031491;28;20189;-65
2023/04/29 09:25:31;;;;;;;10.55;7.95;;;12.50;99.90;;;;;;5033919;28;20204;-65
2023/04/29 09:28:15;;;;;;;12.05;8.80;;;12.50;99.90;;;;;;5043719;28;20178;-65
2023/04/29 09:30:47;;;;;;;14.65;9.52;;;12.60;99.90;;;;;;5034746;28;20197;-66
2023/04/29 09:33:14;;;;;;;11.30;8.75;;;12.50;99.90;;;;;;5031800;28;20192;-65
2023/04/29 09:35:42;;;;;;;12.52;8.45;;;12.60;99.90;;;;;;5033224;28;20268;-65
2023/04/29 09:38:14;;;;;;;11.38;8.27;;;12.60;99.90;;;;;;5028291;28;20202;-66
2023/04/29 09:40:42;;;;;;;11.73;8.38;;;12.60;99.90;;;;;;5036932;28;20296;-65
2023/04/29 09:43:17;;;;;;;11.40;8.05;;;12.70;99.90;;;;;;5033094;28;20284;-65
2023/04/29 09:45:47;;;;;;;10.57;6.95;;;12.70;99.90;;;;;;5024582;28;20207;-65
2023/04/29 09:48:16;;;;;;;11.68;7.78;;;12.80;99.90;;;;;;5020534;28;20220;-65
2023/04/29 09:50:43;;;;;;;12.57;7.68;;;12.90;99.90;;;;;;5033967;28;20182;-65
2023/04/29 09:53:26;;;;;;;13.25;8.50;;;12.90;99.90;;;;;;5035696;28;20187;-66
2023/04/29 09:55:52;;;;;;;11.43;8.18;;;13.10;99.90;;;;;;5034305;28;20206;-65
2023/04/29 09:58:39;;;;;;;12.68;8.63;;;13.20;99.90;;;;;;5030451;28;20249;-65
2023/04/29 10:01:05;;;;;;;13.00;8.80;;;13.30;99.90;;;;;;5033282;28;20209;-65
2023/04/29 10:03:35;;;;;;;15.32;10.40;;;13.40;99.90;;;;;;5021219;28;20268;-65
2023/04/29 10:06:08;;;;;;;11.93;8.43;;;13.60;99.90;;;;;;5030526;28;20285;-66
2023/04/29 10:08:34;;;;;;;12.85;8.77;;;13.70;99.90;;;;;;5021080;28;20254;-65
2023/04/29 10:11:02;;;;;;;15.82;10.20;;;13.80;99.90;;;;;;5031076;28;20187;-65
2023/04/29 10:13:28;;;;;;;15.23;10.13;;;13.80;99.90;;;;;;5033140;28;20202;-64
2023/04/29 10:16:17;;;;;;;13.77;9.23;;;13.90;99.90;;;;;;5030602;28;20269;-65
2023/04/29 10:18:52;;;;;;;13.25;9.57;;;13.90;99.90;;;;;;5030976;28;20174;-64
2023/04/29 10:21:32;;;;;;;14.50;10.15;;;13.90;99.90;;;;;;5021856;28;20204;-65
2023/04/29 10:24:00;;;;;;;15.65;9.65;;;13.90;99.90;;;;;;5015390;28;20246;-65
2023/04/29 10:26:28;;;;;;;14.10;9.93;;;13.90;99.90;;;;;;5030119;28;20208;-65
2023/04/29 10:28:59;;;;;;;14.60;9.73;;;13.80;99.90;;;;;;5037683;28;20264;-65
2023/04/29 10:31:28;;;;;;;14.70;9.85;;;13.80;99.90;;;;;;5023983;28;20182;-65
2023/04/29 10:33:58;;;;;;;14.80;10.45;;;13.80;99.90;;;;;;5025652;28;20275;-65
2023/04/29 10:36:30;;;;;;;16.05;11.48;;;13.80;99.90;;;;;;5040119;28;20182;-65
2023/04/29 10:38:59;;;;;;;15.38;11.32;;;13.90;99.90;;;;;;5038127;28;20269;-64
2023/04/29 10:41:45;;;;;;;18.30;13.45;;;13.90;99.90;;;;;;5038944;28;20191;-65
2023/04/29 10:44:12;;;;;;;18.52;12.82;;;13.90;99.90;;;;;;5040112;28;20183;-65
2023/04/29 10:46:40;;;;;;;18.23;13.57;;;13.90;99.90;;;;;;5037198;28;20206;-65
2023/04/29 10:49:06;;;;;;;19.52;14.63;;;13.90;99.90;;;;;;5039061;28;20178;-65
2023/04/29 10:51:45;;;;;;;20.45;13.70;;;13.90;99.90;;;;;;5040185;28;20197;-65
2023/04/29 10:54:16;;;;;;;16.38;12.82;;;13.90;99.90;;;;;;5039477;28;20183;-66
2023/04/29 10:56:51;;;;;;;16.35;12.40;;;13.90;99.90;;;;;;5038286;28;20277;-65
2023/04/29 10:59:20;;;;;;;16.13;11.20;;;13.90;99.90;;;;;;5049454;28;21953;-63
2023/04/29 11:01:48;;;;;;;19.77;12.50;;;13.90;99.90;;;;;;5037298;28;20194;-65
2023/04/29 11:04:18;;;;;;;17.30;11.98;;;13.90;99.90;;;;;;5028503;28;20182;-65
2023/04/29 11:06:55;;;;;;;18.92;13.30;;;13.80;99.90;;;;;;5039648;28;20194;-64
2023/04/29 11:09:25;;;;;;;17.10;11.85;;;13.80;99.90;;;;;;5038808;28;20208;-65
2023/04/29 11:12:07;;;;;;;18.83;12.95;;;13.80;99.90;;;;;;5039376;28;20174;-63
2023/04/29 11:14:39;;;;;;;18.05;13.20;;;13.80;99.90;;;;;;5046153;28;20193;-64
2023/04/29 11:17:11;;;;;;;18.13;13.05;;;13.80;99.90;;;;;;5053242;28;20178;-65
2023/04/29 11:19:45;;;;;;;17.75;12.98;;;13.80;99.90;;;;;;5025470;28;20269;-65
2023/04/29 11:22:23;;;;;;;18.45;13.70;;;13.80;99.90;;;;;;5038853;28;20174;-64
2023/04/29 11:25:01;;;;;;;18.73;13.43;;;13.80;99.90;;;;;;5048621;28;20201;-64
2023/04/29 11:27:31;;;;;;;20.38;13.55;;;13.80;99.90;;;;;;5031057;28;20170;-65
2023/04/29 11:29:58;;;;;;;16.77;12.77;;;13.70;99.90;;;;;;5039670;28;20188;-65
2023/04/29 11:32:31;;;;;;;19.63;13.98;;;13.70;99.90;;;;;;5038775;28;20198;-65
2023/04/29 11:35:18;;;;;;;22.65;15.27;;;13.70;99.90;;;;;;5038969;28;20193;-69
2023/04/29 11:37:47;;;;;;;22.80;15.50;;;13.60;99.90;;;;;;5048789;28;20169;-64
2023/04/29 11:40:14;;;;;;;23.10;15.57;;;13.60;99.90;;;;;;5036090;28;20201;-65
2023/04/29 11:42:43;;;;;;;22.00;16.15;;;13.60;99.90;;;;;;5040349;28;20182;-66
2023/04/29 11:45:09;;;;;;;22.40;15.65;;;13.60;99.90;;;;;;5032963;28;20207;-65
2023/04/29 11:47:35;;;;;;;22.63;14.75;;;13.60;99.90;;;;;;5033510;28;20257;-65
2023/04/29 11:50:09;;;;;;;22.98;16.05;;;13.50;99.90;;;;;;5045459;28;20477;-65
2023/04/29 11:52:36;;;;;;;19.30;14.70;;;13.50;99.90;;;;;;5035778;28;20225;-65
2023/04/29 11:55:05;;;;;;;20.48;14.30;;;13.50;99.90;;;;;;5036342;28;20190;-66
2023/04/29 11:57:30;;;;;;;18.35;13.27;;;13.50;99.90;;;;;;5035613;28;20231;-65
2023/04/29 11:59:57;;;;;;;18.70;13.13;;;13.60;99.90;;;;;;5035128;28;20273;-66
2023/04/29 12:02:32;;;;;;;16.70;12.68;;;13.60;99.90;;;;;;5032070;28;20337;-65
2023/04/29 12:05:04;;;;;;;17.23;12.93;;;13.50;99.90;;;;;;5028214;28;20209;-64
2023/04/29 12:07:30;;;;;;;15.60;11.73;;;13.60;99.90;;;;;;5034650;28;20186;-65
2023/04/29 12:09:56;;;;;;;16.38;12.13;;;13.60;99.90;;;;;;5036634;28;20182;-65
2023/04/29 12:12:26;;;;;;;13.85;11.30;;;13.70;99.90;;;;;;5035741;28;20180;-65
2023/04/29 12:14:52;;;;;;;16.58;12.25;;;13.60;99.90;;;;;;5034500;28;20179;-65
2023/04/29 12:17:21;;;;;;;16.42;12.32;;;13.60;99.90;;;;;;5032916;28;20272;-65
2023/04/29 12:19:47;;;;;;;16.88;12.82;;;13.60;99.90;;;;;;5039395;28;20182;-65
2023/04/29 12:22:13;;;;;;;20.48;14.00;;;13.60;99.90;;;;;;5033581;28;20429;-65
2023/04/29 12:24:39;;;;;;;18.05;14.15;;;13.60;99.90;;;;;;5035114;28;20248;-65
2023/04/29 12:27:11;;;;;;;23.75;16.30;;;13.60;99.90;;;;;;5035091;28;20185;-65
2023/04/29 12:29:40;;;;;;;26.45;17.48;;;13.60;99.90;;;;;;5031807;28;20178;-65
2023/04/29 12:32:10;;;;;;;32.03;21.63;;;13.70;99.90;;;;;;5028756;28;20185;-65
2023/04/29 12:34:35;;;;;;;32.08;21.73;;;13.70;99.90;;;;;;5028217;28;20221;-65
2023/04/29 12:37:01;;;;;;;37.53;24.00;;;13.60;99.90;;;;;;5029551;28;20225;-65
2023/04/29 12:39:27;;;;;;;38.97;23.92;;;13.70;99.90;;;;;;5026700;28;20183;-65
2023/04/29 12:42:03;;;;;;;38.63;26.23;;;13.70;99.90;;;;;;5028714;28;20186;-64